sensor_id;sensor_type;location;lat;lon;timestamp;pressure;altitude;pressure_sealevel;temperature;humidity
56038;BME280;41907;47.848;9.000;2023-04-25T00:02:19;95256.72;;;6.84;100.00
56038;BME280;41907;47.848;9.000;2023-04-25T00:04:45;95247.97;;;6.83;100.00
56038;BME280;41907;47.848;9.000;2023-04-25T00:07:11;95252.56;;;6.91;100.00
56038;BME280;41907;47.848;9.000;2023-04-25T00:09:36;95244.91;;;6.90;100.00
56038;BME280;41907;47.848;9.000;2023-04-25T00:12:01;95235.97;;;6.99;100.00
56038;BME280;41907;47.848;9.000;2023-04-25T00:14:27;95237.94;;;6.94;100.00
56038;BME280;41907;47.848;9.000;2023-04-25T00:16:52;95238.44;;;6.96;100.00
56038;BME280;41907;47.848;9.000;2023-04-25T00:19:19;95226.56;;;6.93;100.00
56038;BME280;41907;47.848;9.000;2023-04-25T00:21:44;95221.56;;;6.92;100.00
56038;BME280;41907;47.848;9.000;2023-04-25T00:24:11;95214.38;;;6.92;100.00
56038;BME280;41907;47.848;9.000;2023-04-25T00:26:36;95210.38;;;6.81;100.00
56038;BME280;41907;47.848;9.000;2023-04-25T00:29:02;95215.78;;;6.76;100.00
56038;BME280;41907;47.848;9.000;2023-04-25T00:31:27;95216.66;;;6.71;100.00
56038;BME280;41907;47.848;9.000;2023-04-25T00:33:53;95206.25;;;6.61;100.00
56038;BME280;41907;47.848;9.000;2023-04-25T00:36:19;95212.53;;;6.52;100.00
56038;BME280;41907;47.848;9.000;2023-04-25T00:38:44;95206.06;;;6.44;100.00
56038;BME280;41907;47.848;9.000;2023-04-25T00:41:09;95204.31;;;6.40;100.00
56038;BME280;41907;47.848;9.000;2023-04-25T00:43:36;95207.03;;;6.34;100.00
56038;BME280;41907;47.848;9.000;2023-04-25T00:46:01;95205.78;;;6.32;100.00
56038;BME280;41907;47.848;9.000;2023-04-25T00:48:26;95207.13;;;6.29;100.00
56038;BME280;41907;47.848;9.000;2023-04-25T00:50:56;95203.69;;;6.29;100.00
56038;BME280;41907;47.848;9.000;2023-04-25T00:53:22;95199.69;;;6.31;100.00
56038;BME280;41907;47.848;9.000;2023-04-25T00:55:47;95205.88;;;6.41;100.00
56038;BME280;41907;47.848;9.000;2023-04-25T00:58:15;95201.75;;;6.48;100.00
56038;BME280;41907;47.848;9.000;2023-04-25T01:00:41;95194.31;;;6.50;100.00
56038;BME280;41907;47.848;9.000;2023-04-25T01:03:06;95192.81;;;6.58;100.00
56038;BME280;41907;47.848;9.000;2023-04-25T01:05:32;95198.00;;;6.63;100.00
56038;BME280;41907;47.848;9.000;2023-04-25T01:07:57;95197.72;;;6.64;100.00
56038;BME280;41907;47.848;9.000;2023-04-25T01:10:23;95195.28;;;6.68;100.00
56038;BME280;41907;47.848;9.000;2023-04-25T01:12:48;95188.97;;;6.64;100.00
56038;BME280;41907;47.848;9.000;2023-04-25T01:15:14;95178.88;;;6.52;100.00
56038;BME280;41907;47.848;9.000;2023-04-25T01:17:40;95182.22;;;6.58;100.00
56038;BME280;41907;47.848;9.000;2023-04-25T01:20:06;95180.53;;;6.62;100.00
56038;BME280;41907;47.848;9.000;2023-04-25T01:22:32;95188.81;;;6.60;100.00
56038;BME280;41907;47.848;9.000;2023-04-25T01:24:58;95185.34;;;6.46;100.00
56038;BME280;41907;47.848;9.000;2023-04-25T01:27:23;95190.53;;;6.51;100.00
56038;BME280;41907;47.848;9.000;2023-04-25T01:29:50;95183.72;;;6.50;100.00
56038;BME280;41907;47.848;9.000;2023-04-25T01:32:15;95182.03;;;6.54;100.00
56038;BME280;41907;47.848;9.000;2023-04-25T01:34:41;95181.72;;;6.56;100.00
56038;BME280;41907;47.848;9.000;2023-04-25T01:37:06;95185.25;;;6.65;100.00
56038;BME280;41907;47.848;9.000;2023-04-25T01:39:31;95177.44;;;6.60;100.00
56038;BME280;41907;47.848;9.000;2023-04-25T01:41:58;95188.13;;;6.68;100.00
56038;BME280;41907;47.848;9.000;2023-04-25T01:44:23;95182.19;;;6.71;100.00
56038;BME280;41907;47.848;9.000;2023-04-25T01:46:48;95178.88;;;6.66;100.00
56038;BME280;41907;47.848;9.000;2023-04-25T01:49:13;95180.63;;;6.70;100.00
56038;BME280;41907;47.848;9.000;2023-04-25T01:51:39;95174.94;;;6.63;100.00
56038;BME280;41907;47.848;9.000;2023-04-25T01:54:04;95168.69;;;6.59;100.00
56038;BME280;41907;47.848;9.000;2023-04-25T01:56:31;95183.59;;;6.55;100.00
56038;BME280;41907;47.848;9.000;2023-04-25T01:58:57;95172.00;;;6.65;100.00
56038;BME280;41907;47.848;9.000;2023-04-25T02:01:22;95179.66;;;6.66;100.00
56038;BME280;41907;47.848;9.000;2023-04-25T02:03:47;95169.94;;;6.62;100.00
56038;BME280;41907;47.848;9.000;2023-04-25T02:06:12;95162.31;;;6.60;100.00
56038;BME280;41907;47.848;9.000;2023-04-25T02:08:37;95161.41;;;6.65;100.00
56038;BME280;41907;47.848;9.000;2023-04-25T02:11:03;95163.47;;;6.68;100.00
56038;BME280;41907;47.848;9.000;2023-04-25T02:13:28;95159.25;;;6.67;100.00
56038;BME280;41907;47.848;9.000;2023-04-25T02:15:53;95163.06;;;6.61;100.00
56038;BME280;41907;47.848;9.000;2023-04-25T02:18:19;95160.34;;;6.66;100.00
56038;BME280;41907;47.848;9.000;2023-04-25T02:20:45;95149.34;;;6.59;100.00
56038;BME280;41907;47.848;9.000;2023-04-25T02:23:11;95139.13;;;6.52;100.00
56038;BME280;41907;47.848;9.000;2023-04-25T02:25:36;95136.97;;;6.54;100.00
56038;BME280;41907;47.848;9.000;2023-04-25T02:28:01;95147.28;;;6.42;100.00
56038;BME280;41907;47.848;9.000;2023-04-25T02:30:27;95151.41;;;6.34;100.00
56038;BME280;41907;47.848;9.000;2023-04-25T02:32:52;95158.78;;;6.38;100.00
56038;BME280;41907;47.848;9.000;2023-04-25T02:35:17;95160.25;;;6.30;100.00
56038;BME280;41907;47.848;9.000;2023-04-25T02:37:43;95152.19;;;6.08;100.00
56038;BME280;41907;47.848;9.000;2023-04-25T02:40:08;95151.00;;;5.68;100.00
56038;BME280;41907;47.848;9.000;2023-04-25T02:42:34;95151.59;;;5.65;100.00
56038;BME280;41907;47.848;9.000;2023-04-25T02:44:59;95149.00;;;5.46;100.00
56038;BME280;41907;47.848;9.000;2023-04-25T02:47:24;95150.31;;;5.62;100.00
56038;BME280;41907;47.848;9.000;2023-04-25T02:49:49;95146.66;;;5.58;100.00
56038;BME280;41907;47.848;9.000;2023-04-25T02:52:14;95143.38;;;5.47;100.00
56038;BME280;41907;47.848;9.000;2023-04-25T02:54:40;95145.31;;;5.28;100.00
56038;BME280;41907;47.848;9.000;2023-04-25T02:57:05;95143.56;;;5.37;100.00
56038;BME280;41907;47.848;9.000;2023-04-25T02:59:33;95150.41;;;5.38;100.00
56038;BME280;41907;47.848;9.000;2023-04-25T03:01:58;95158.94;;;5.35;100.00
56038;BME280;41907;47.848;9.000;2023-04-25T03:04:23;95149.03;;;5.08;100.00
56038;BME280;41907;47.848;9.000;2023-04-25T03:06:49;95142.31;;;4.97;100.00
56038;BME280;41907;47.848;9.000;2023-04-25T03:09:15;95145.31;;;5.09;100.00
56038;BME280;41907;47.848;9.000;2023-04-25T03:11:40;95147.66;;;5.11;100.00
56038;BME280;41907;47.848;9.000;2023-04-25T03:14:05;95145.09;;;5.06;100.00
56038;BME280;41907;47.848;9.000;2023-04-25T03:16:30;95137.31;;;4.96;100.00
56038;BME280;41907;47.848;9.000;2023-04-25T03:18:56;95138.72;;;4.69;100.00
56038;BME280;41907;47.848;9.000;2023-04-25T03:21:21;95137.53;;;4.80;100.00
56038;BME280;41907;47.848;9.000;2023-04-25T03:23:47;95128.03;;;4.79;100.00
56038;BME280;41907;47.848;9.000;2023-04-25T03:26:12;95137.69;;;4.89;100.00
56038;BME280;41907;47.848;9.000;2023-04-25T03:28:37;95139.88;;;4.82;100.00
56038;BME280;41907;47.848;9.000;2023-04-25T03:31:02;95146.81;;;4.78;100.00
56038;BME280;41907;47.848;9.000;2023-04-25T03:33:28;95137.34;;;4.72;100.00
56038;BME280;41907;47.848;9.000;2023-04-25T03:35:53;95141.81;;;4.76;100.00
56038;BME280;41907;47.848;9.000;2023-04-25T03:38:18;95132.50;;;4.60;100.00
56038;BME280;41907;47.848;9.000;2023-04-25T03:40:43;95139.84;;;4.63;100.00
56038;BME280;41907;47.848;9.000;2023-04-25T03:43:09;95134.56;;;4.63;100.00
56038;BME280;41907;47.848;9.000;2023-04-25T03:45:34;95131.50;;;4.56;100.00
56038;BME280;41907;47.848;9.000;2023-04-25T03:47:59;95129.38;;;4.58;100.00
56038;BME280;41907;47.848;9.000;2023-04-25T03:50:25;95129.84;;;4.41;100.00
56038;BME280;41907;47.848;9.000;2023-04-25T03:52:50;95132.09;;;4.29;100.00
56038;BME280;41907;47.848;9.000;2023-04-25T03:55:15;95136.69;;;4.19;100.00
56038;BME280;41907;47.848;9.000;2023-04-25T03:57:41;95138.78;;;4.22;100.00
56038;BME280;41907;47.848;9.000;2023-04-25T04:00:06;95141.94;;;4.24;100.00
56038;BME280;41907;47.848;9.000;2023-04-25T04:02:31;95130.28;;;4.25;100.00
56038;BME280;41907;47.848;9.000;2023-04-25T04:04:58;95129.22;;;4.26;100.00
56038;BME280;41907;47.848;9.000;2023-04-25T04:07:23;95133.22;;;4.23;100.00
56038;BME280;41907;47.848;9.000;2023-04-25T04:09:48;95129.44;;;4.29;100.00
56038;BME280;41907;47.848;9.000;2023-04-25T04:12:13;95121.38;;;4.21;100.00
56038;BME280;41907;47.848;9.000;2023-04-25T04:14:39;95122.91;;;4.03;100.00
56038;BME280;41907;47.848;9.000;2023-04-25T04:17:04;95123.19;;;4.01;100.00
56038;BME280;41907;47.848;9.000;2023-04-25T04:19:30;95123.97;;;4.02;100.00
56038;BME280;41907;47.848;9.000;2023-04-25T04:21:56;95120.91;;;3.90;100.00
56038;BME280;41907;47.848;9.000;2023-04-25T04:24:21;95123.72;;;3.98;100.00
56038;BME280;41907;47.848;9.000;2023-04-25T04:26:46;95119.63;;;4.11;100.00
56038;BME280;41907;47.848;9.000;2023-04-25T04:29:11;95110.75;;;4.26;100.00
56038;BME280;41907;47.848;9.000;2023-04-25T04:31:45;95120.28;;;4.45;100.00
56038;BME280;41907;47.848;9.000;2023-04-25T04:34:10;95111.44;;;4.55;100.00
56038;BME280;41907;47.848;9.000;2023-04-25T04:36:35;95111.25;;;4.52;100.00
56038;BME280;41907;47.848;9.000;2023-04-25T04:39:01;95115.34;;;4.39;100.00
56038;BME280;41907;47.848;9.000;2023-04-25T04:41:28;95117.19;;;4.38;100.00
56038;BME280;41907;47.848;9.000;2023-04-25T04:43:53;95118.25;;;4.37;100.00
56038;BME280;41907;47.848;9.000;2023-04-25T04:46:20;95116.44;;;4.75;100.00
56038;BME280;41907;47.848;9.000;2023-04-25T04:48:46;95117.88;;;5.05;100.00
56038;BME280;41907;47.848;9.000;2023-04-25T04:51:12;95126.44;;;5.48;100.00
56038;BME280;41907;47.848;9.000;2023-04-25T04:53:37;95111.50;;;6.31;100.00
56038;BME280;41907;47.848;9.000;2023-04-25T04:56:02;95109.03;;;7.20;100.00
56038;BME280;41907;47.848;9.000;2023-04-25T04:58:27;95108.84;;;8.88;100.00
56038;BME280;41907;47.848;9.000;2023-04-25T05:00:54;95116.53;;;10.23;92.09
56038;BME280;41907;47.848;9.000;2023-04-25T05:03:20;95119.97;;;10.61;88.31
56038;BME280;41907;47.848;9.000;2023-04-25T05:05:45;95112.94;;;9.29;92.50
56038;BME280;41907;47.848;9.000;2023-04-25T05:08:10;95114.75;;;8.11;100.00
56038;BME280;41907;47.848;9.000;2023-04-25T05:10:36;95115.63;;;7.45;100.00
56038;BME280;41907;47.848;9.000;2023-04-25T05:13:01;95123.03;;;6.76;100.00
56038;BME280;41907;47.848;9.000;2023-04-25T05:15:26;95119.22;;;6.55;100.00
56038;BME280;41907;47.848;9.000;2023-04-25T05:17:51;95126.00;;;6.20;100.00
56038;BME280;41907;47.848;9.000;2023-04-25T05:20:17;95118.84;;;6.20;100.00
56038;BME280;41907;47.848;9.000;2023-04-25T05:22:43;95121.31;;;6.03;100.00
56038;BME280;41907;47.848;9.000;2023-04-25T05:25:09;95122.47;;;6.11;100.00
56038;BME280;41907;47.848;9.000;2023-04-25T05:27:34;95126.59;;;6.17;100.00
56038;BME280;41907;47.848;9.000;2023-04-25T05:30:00;95119.53;;;6.26;100.00
56038;BME280;41907;47.848;9.000;2023-04-25T05:32:25;95116.50;;;6.46;100.00
56038;BME280;41907;47.848;9.000;2023-04-25T05:34:51;95125.75;;;7.21;100.00
56038;BME280;41907;47.848;9.000;2023-04-25T05:37:16;95115.00;;;8.41;100.00
56038;BME280;41907;47.848;9.000;2023-04-25T05:39:41;95110.75;;;9.40;99.11
56038;BME280;41907;47.848;9.000;2023-04-25T05:42:07;95116.81;;;9.75;95.54
56038;BME280;41907;47.848;9.000;2023-04-25T05:44:32;95112.25;;;9.84;94.53
56038;BME280;41907;47.848;9.000;2023-04-25T05:46:57;95112.03;;;10.06;93.85
56038;BME280;41907;47.848;9.000;2023-04-25T05:49:22;95110.47;;;11.02;89.54
56038;BME280;41907;47.848;9.000;2023-04-25T05:51:48;95104.41;;;11.88;83.43
56038;BME280;41907;47.848;9.000;2023-04-25T05:54:13;95109.69;;;11.22;84.21
56038;BME280;41907;47.848;9.000;2023-04-25T05:56:38;95113.84;;;11.11;86.04
56038;BME280;41907;47.848;9.000;2023-04-25T05:59:03;95104.47;;;10.55;87.79
56038;BME280;41907;47.848;9.000;2023-04-25T06:01:28;95105.00;;;10.39;89.86
56038;BME280;41907;47.848;9.000;2023-04-25T06:03:54;95109.69;;;11.01;88.19
56038;BME280;41907;47.848;9.000;2023-04-25T06:06:19;95109.25;;;11.53;84.96
56038;BME280;41907;47.848;9.000;2023-04-25T06:08:44;95106.66;;;11.98;82.35
56038;BME280;41907;47.848;9.000;2023-04-25T06:11:10;95104.22;;;12.05;79.48
56038;BME280;41907;47.848;9.000;2023-04-25T06:13:35;95108.72;;;12.50;78.15
56038;BME280;41907;47.848;9.000;2023-04-25T06:16:00;95110.16;;;12.59;76.10
56038;BME280;41907;47.848;9.000;2023-04-25T06:18:25;95118.34;;;11.40;80.43
56038;BME280;41907;47.848;9.000;2023-04-25T06:20:50;95113.16;;;11.76;80.67
56038;BME280;41907;47.848;9.000;2023-04-25T06:23:16;95118.34;;;11.73;82.83
56038;BME280;41907;47.848;9.000;2023-04-25T06:25:41;95113.09;;;11.43;83.31
56038;BME280;41907;47.848;9.000;2023-04-25T06:28:06;95120.09;;;11.15;84.02
56038;BME280;41907;47.848;9.000;2023-04-25T06:30:31;95120.38;;;10.72;87.27
56038;BME280;41907;47.848;9.000;2023-04-25T06:32:56;95118.03;;;10.41;89.24
56038;BME280;41907;47.848;9.000;2023-04-25T06:35:22;95117.66;;;10.04;90.46
56038;BME280;41907;47.848;9.000;2023-04-25T06:37:47;95120.84;;;9.89;94.09
56038;BME280;41907;47.848;9.000;2023-04-25T06:40:12;95111.78;;;9.90;93.64
56038;BME280;41907;47.848;9.000;2023-04-25T06:42:37;95119.09;;;9.93;94.81
56038;BME280;41907;47.848;9.000;2023-04-25T06:45:03;95113.63;;;9.98;95.83
56038;BME280;41907;47.848;9.000;2023-04-25T06:47:28;95107.19;;;9.99;95.90
56038;BME280;41907;47.848;9.000;2023-04-25T06:49:54;95109.72;;;9.87;91.01
56038;BME280;41907;47.848;9.000;2023-04-25T06:52:20;95111.69;;;9.61;90.60
56038;BME280;41907;47.848;9.000;2023-04-25T06:54:45;95105.44;;;9.31;92.93
56038;BME280;41907;47.848;9.000;2023-04-25T06:57:10;95108.41;;;9.21;95.90
56038;BME280;41907;47.848;9.000;2023-04-25T06:59:35;95100.28;;;9.09;98.39
56038;BME280;41907;47.848;9.000;2023-04-25T07:02:01;95105.75;;;8.95;97.99
56038;BME280;41907;47.848;9.000;2023-04-25T07:04:26;95107.47;;;8.91;99.46
56038;BME280;41907;47.848;9.000;2023-04-25T07:06:51;95108.81;;;8.54;98.85
56038;BME280;41907;47.848;9.000;2023-04-25T07:09:16;95115.09;;;8.58;100.00
56038;BME280;41907;47.848;9.000;2023-04-25T07:11:41;95119.28;;;8.59;100.00
56038;BME280;41907;47.848;9.000;2023-04-25T07:14:07;95124.59;;;8.59;100.00
56038;BME280;41907;47.848;9.000;2023-04-25T07:16:32;95131.81;;;8.58;100.00
56038;BME280;41907;47.848;9.000;2023-04-25T07:18:57;95129.59;;;8.61;100.00
56038;BME280;41907;47.848;9.000;2023-04-25T07:21:22;95128.97;;;8.55;100.00
56038;BME280;41907;47.848;9.000;2023-04-25T07:23:48;95134.28;;;8.46;100.00
56038;BME280;41907;47.848;9.000;2023-04-25T07:26:13;95142.13;;;8.20;100.00
56038;BME280;41907;47.848;9.000;2023-04-25T07:28:38;95141.31;;;8.11;100.00
56038;BME280;41907;47.848;9.000;2023-04-25T07:31:03;95141.97;;;7.95;100.00
56038;BME280;41907;47.848;9.000;2023-04-25T07:33:30;95146.25;;;7.73;100.00
56038;BME280;41907;47.848;9.000;2023-04-25T07:35:55;95151.03;;;7.27;100.00
56038;BME280;41907;47.848;9.000;2023-04-25T07:38:21;95162.22;;;7.15;100.00
56038;BME280;41907;47.848;9.000;2023-04-25T07:40:47;95161.66;;;6.91;100.00
56038;BME280;41907;47.848;9.000;2023-04-25T07:43:12;95161.91;;;6.53;100.00
56038;BME280;41907;47.848;9.000;2023-04-25T07:45:41;95168.09;;;6.35;100.00
56038;BME280;41907;47.848;9.000;2023-04-25T07:48:07;95180.63;;;6.02;100.00
56038;BME280;41907;47.848;9.000;2023-04-25T07:50:32;95191.34;;;5.59;100.00
56038;BME280;41907;47.848;9.000;2023-04-25T07:52:57;95183.84;;;5.48;100.00
56038;BME280;41907;47.848;9.000;2023-04-25T07:55:22;95193.50;;;5.39;100.00
56038;BME280;41907;47.848;9.000;2023-04-25T07:57:48;95194.81;;;5.22;100.00
56038;BME280;41907;47.848;9.000;2023-04-25T08:00:13;95191.38;;;5.22;100.00
56038;BME280;41907;47.848;9.000;2023-04-25T08:02:39;95190.84;;;5.39;100.00
56038;BME280;41907;47.848;9.000;2023-04-25T08:05:05;95185.97;;;5.65;100.00
56038;BME280;41907;47.848;9.000;2023-04-25T08:07:33;95185.56;;;5.39;100.00
56038;BME280;41907;47.848;9.000;2023-04-25T08:09:58;95189.66;;;5.31;100.00
56038;BME280;41907;47.848;9.000;2023-04-25T08:12:23;95179.56;;;5.52;100.00
56038;BME280;41907;47.848;9.000;2023-04-25T08:14:48;95188.94;;;5.44;100.00
56038;BME280;41907;47.848;9.000;2023-04-25T08:17:14;95191.31;;;5.46;100.00
56038;BME280;41907;47.848;9.000;2023-04-25T08:19:40;95192.00;;;5.51;100.00
56038;BME280;41907;47.848;9.000;2023-04-25T08:22:05;95199.63;;;5.72;100.00
56038;BME280;41907;47.848;9.000;2023-04-25T08:24:30;95194.56;;;5.56;100.00
56038;BME280;41907;47.848;9.000;2023-04-25T08:26:55;95201.22;;;5.54;100.00
56038;BME280;41907;47.848;9.000;2023-04-25T08:29:21;95191.31;;;5.46;100.00
56038;BME280;41907;47.848;9.000;2023-04-25T08:31:48;95203.22;;;5.62;100.00
56038;BME280;41907;47.848;9.000;2023-04-25T08:34:13;95205.19;;;5.70;100.00
56038;BME280;41907;47.848;9.000;2023-04-25T08:36:38;95211.53;;;5.88;100.00
56038;BME280;41907;47.848;9.000;2023-04-25T08:39:04;95215.50;;;6.04;100.00
56038;BME280;41907;47.848;9.000;2023-04-25T08:41:29;95207.88;;;6.16;100.00
56038;BME280;41907;47.848;9.000;2023-04-25T08:43:55;95221.34;;;6.33;100.00
56038;BME280;41907;47.848;9.000;2023-04-25T08:46:21;95220.28;;;6.48;100.00
56038;BME280;41907;47.848;9.000;2023-04-25T08:48:48;95228.03;;;6.45;100.00
56038;BME280;41907;47.848;9.000;2023-04-25T08:51:17;95229.69;;;6.27;100.00
56038;BME280;41907;47.848;9.000;2023-04-25T08:53:45;95234.50;;;6.39;100.00
56038;BME280;41907;47.848;9.000;2023-04-25T08:56:13;95232.06;;;6.56;100.00
56038;BME280;41907;47.848;9.000;2023-04-25T08:58:42;95235.50;;;6.56;100.00
56038;BME280;41907;47.848;9.000;2023-04-25T09:01:08;95244.03;;;6.67;100.00
56038;BME280;41907;47.848;9.000;2023-04-25T09:03:33;95249.34;;;6.67;100.00
56038;BME280;41907;47.848;9.000;2023-04-25T09:05:59;95263.28;;;6.59;100.00
56038;BME280;41907;47.848;9.000;2023-04-25T09:08:24;95262.31;;;6.68;100.00
56038;BME280;41907;47.848;9.000;2023-04-25T09:10:49;95268.31;;;6.88;100.00
56038;BME280;41907;47.848;9.000;2023-04-25T09:13:23;95272.81;;;6.87;100.00
56038;BME280;41907;47.848;9.000;2023-04-25T09:18:14;95276.13;;;7.20;100.00
56038;BME280;41907;47.848;9.000;2023-04-25T09:20:46;95271.50;;;7.26;100.00
56038;BME280;41907;47.848;9.000;2023-04-25T09:23:11;95279.19;;;7.63;100.00
56038;BME280;41907;47.848;9.000;2023-04-25T09:25:37;95284.88;;;7.93;100.00
56038;BME280;41907;47.848;9.000;2023-04-25T09:28:04;95288.53;;;8.19;100.00
56038;BME280;41907;47.848;9.000;2023-04-25T09:30:30;95282.91;;;8.43;100.00
56038;BME280;41907;47.848;9.000;2023-04-25T09:32:56;95289.41;;;8.59;100.00
56038;BME280;41907;47.848;9.000;2023-04-25T09:35:24;95287.84;;;8.58;100.00
56038;BME280;41907;47.848;9.000;2023-04-25T09:37:53;95285.03;;;8.63;100.00
56038;BME280;41907;47.848;9.000;2023-04-25T09:40:18;95292.06;;;8.99;100.00
56038;BME280;41907;47.848;9.000;2023-04-25T09:42:44;95285.00;;;9.33;100.00
56038;BME280;41907;47.848;9.000;2023-04-25T09:45:09;95299.94;;;9.95;100.00
56038;BME280;41907;47.848;9.000;2023-04-25T09:47:37;95301.53;;;10.86;100.00
56038;BME280;41907;47.848;9.000;2023-04-25T09:50:03;95302.16;;;11.29;100.00
56038;BME280;41907;47.848;9.000;2023-04-25T09:52:38;95306.09;;;11.23;99.27
56038;BME280;41907;47.848;9.000;2023-04-25T09:55:03;95297.25;;;11.02;96.49
56038;BME280;41907;47.848;9.000;2023-04-25T09:57:29;95298.47;;;11.42;96.22
56038;BME280;41907;47.848;9.000;2023-04-25T09:59:55;95306.88;;;11.53;95.24
56038;BME280;41907;47.848;9.000;2023-04-25T10:02:22;95308.31;;;11.50;94.60
56038;BME280;41907;47.848;9.000;2023-04-25T10:04:48;95305.88;;;10.99;95.31
56038;BME280;41907;47.848;9.000;2023-04-25T10:07:14;95309.16;;;11.04;95.58
56038;BME280;41907;47.848;9.000;2023-04-25T10:09:39;95304.94;;;11.33;93.16
56038;BME280;41907;47.848;9.000;2023-04-25T10:12:05;95296.66;;;12.05;91.73
56038;BME280;41907;47.848;9.000;2023-04-25T10:14:31;95292.97;;;12.30;89.78
56038;BME280;41907;47.848;9.000;2023-04-25T10:16:57;95288.09;;;11.91;92.65
56038;BME280;41907;47.848;9.000;2023-04-25T10:19:23;95293.47;;;11.62;85.57
56038;BME280;41907;47.848;9.000;2023-04-25T10:22:34;95292.94;;;11.77;91.39
56038;BME280;41907;47.848;9.000;2023-04-25T10:24:37;95291.56;;;11.41;90.10
56038;BME280;41907;47.848;9.000;2023-04-25T10:27:03;95296.47;;;11.01;92.29
56038;BME280;41907;47.848;9.000;2023-04-25T10:29:29;95301.13;;;10.66;96.78
56038;BME280;41907;47.848;9.000;2023-04-25T10:31:54;95299.25;;;10.75;97.61
56038;BME280;41907;47.848;9.000;2023-04-25T10:34:23;95300.63;;;10.81;96.88
56038;BME280;41907;47.848;9.000;2023-04-25T10:36:50;95291.84;;;10.81;96.63
56038;BME280;41907;47.848;9.000;2023-04-25T10:39:24;95294.41;;;10.60;98.67
56038;BME280;41907;47.848;9.000;2023-04-25T10:41:56;95304.63;;;10.41;99.56
56038;BME280;41907;47.848;9.000;2023-04-25T10:44:21;95298.19;;;10.51;100.00
56038;BME280;41907;47.848;9.000;2023-04-25T10:46:46;95295.88;;;10.32;99.05
56038;BME280;41907;47.848;9.000;2023-04-25T10:49:27;95298.94;;;10.60;99.22
56038;BME280;41907;47.848;9.000;2023-04-25T10:51:58;95302.00;;;10.88;98.00
56038;BME280;41907;47.848;9.000;2023-04-25T10:54:35;95311.34;;;11.11;98.62
56038;BME280;41907;47.848;9.000;2023-04-25T10:57:04;95313.81;;;11.16;97.27
56038;BME280;41907;47.848;9.000;2023-04-25T10:59:30;95311.28;;;10.81;92.00
56038;BME280;41907;47.848;9.000;2023-04-25T11:01:55;95315.91;;;11.10;93.14
56038;BME280;41907;47.848;9.000;2023-04-25T11:09:23;95316.91;;;10.89;94.14
56038;BME280;41907;47.848;9.000;2023-04-25T11:11:55;95314.28;;;10.80;93.48
56038;BME280;41907;47.848;9.000;2023-04-25T11:14:20;95308.53;;;11.37;93.68
56038;BME280;41907;47.848;9.000;2023-04-25T11:16:46;95304.88;;;12.54;91.25
56038;BME280;41907;47.848;9.000;2023-04-25T11:19:11;95307.72;;;13.27;89.98
56038;BME280;41907;47.848;9.000;2023-04-25T11:21:37;95304.63;;;13.89;85.23
56038;BME280;41907;47.848;9.000;2023-04-25T11:24:02;95297.16;;;13.95;76.67
56038;BME280;41907;47.848;9.000;2023-04-25T11:26:27;95296.84;;;12.99;80.75
56038;BME280;41907;47.848;9.000;2023-04-25T11:28:56;95309.22;;;12.91;82.11
56038;BME280;41907;47.848;9.000;2023-04-25T11:31:22;95308.63;;;11.99;80.26
56038;BME280;41907;47.848;9.000;2023-04-25T11:33:47;95317.78;;;11.77;83.52
56038;BME280;41907;47.848;9.000;2023-04-25T11:36:12;95322.41;;;11.60;84.23
56038;BME280;41907;47.848;9.000;2023-04-25T11:38:37;95317.41;;;11.58;85.05
56038;BME280;41907;47.848;9.000;2023-04-25T11:41:03;95319.69;;;11.68;83.41
56038;BME280;41907;47.848;9.000;2023-04-25T11:43:28;95316.78;;;12.44;86.22
56038;BME280;41907;47.848;9.000;2023-04-25T11:45:53;95313.34;;;13.01;82.13
56038;BME280;41907;47.848;9.000;2023-04-25T11:48:18;95313.88;;;13.39;81.32
56038;BME280;41907;47.848;9.000;2023-04-25T11:50:44;95308.94;;;13.66;81.68
56038;BME280;41907;47.848;9.000;2023-04-25T11:53:09;95315.50;;;13.81;78.17
56038;BME280;41907;47.848;9.000;2023-04-25T11:55:35;95331.94;;;13.55;78.57
56038;BME280;41907;47.848;9.000;2023-04-25T11:58:01;95321.00;;;13.48;79.54
56038;BME280;41907;47.848;9.000;2023-04-25T12:00:28;95319.59;;;13.05;79.80
56038;BME280;41907;47.848;9.000;2023-04-25T12:02:54;95324.38;;;12.99;79.76
56038;BME280;41907;47.848;9.000;2023-04-25T12:05:19;95325.13;;;13.21;76.35
56038;BME280;41907;47.848;9.000;2023-04-25T12:07:46;95334.50;;;13.63;76.26
56038;BME280;41907;47.848;9.000;2023-04-25T12:10:12;95323.31;;;13.73;72.48
56038;BME280;41907;47.848;9.000;2023-04-25T12:12:38;95332.44;;;13.97;74.59
56038;BME280;41907;47.848;9.000;2023-04-25T12:15:24;95334.69;;;14.35;75.03
56038;BME280;41907;47.848;9.000;2023-04-25T12:17:50;95327.44;;;13.71;72.62
56038;BME280;41907;47.848;9.000;2023-04-25T12:20:19;95336.34;;;13.87;73.26
56038;BME280;41907;47.848;9.000;2023-04-25T12:22:46;95332.72;;;14.20;73.58
56038;BME280;41907;47.848;9.000;2023-04-25T12:27:55;95337.88;;;14.12;70.25
56038;BME280;41907;47.848;9.000;2023-04-25T12:30:20;95327.34;;;13.67;69.65
56038;BME280;41907;47.848;9.000;2023-04-25T12:32:45;95334.66;;;14.07;73.89
56038;BME280;41907;47.848;9.000;2023-04-25T12:35:12;95328.78;;;14.29;71.22
56038;BME280;41907;47.848;9.000;2023-04-25T12:37:37;95339.69;;;14.48;69.16
56038;BME280;41907;47.848;9.000;2023-04-25T12:40:03;95334.00;;;14.50;64.77
56038;BME280;41907;47.848;9.000;2023-04-25T12:42:29;95337.94;;;14.68;72.14
56038;BME280;41907;47.848;9.000;2023-04-25T12:44:54;95341.69;;;14.79;66.54
56038;BME280;41907;47.848;9.000;2023-04-25T12:47:19;95339.53;;;14.85;69.26
56038;BME280;41907;47.848;9.000;2023-04-25T12:49:45;95330.97;;;14.79;63.39
56038;BME280;41907;47.848;9.000;2023-04-25T12:52:10;95340.09;;;15.06;61.77
56038;BME280;41907;47.848;9.000;2023-04-25T12:54:35;95338.47;;;15.65;61.40
56038;BME280;41907;47.848;9.000;2023-04-25T12:57:00;95338.63;;;15.24;57.03
56038;BME280;41907;47.848;9.000;2023-04-25T12:59:27;95341.84;;;14.43;59.62
56038;BME280;41907;47.848;9.000;2023-04-25T13:01:53;95350.00;;;14.34;59.60
56038;BME280;41907;47.848;9.000;2023-04-25T13:04:18;95356.03;;;14.99;64.30